createdAt,value
2018-05-09T00:00:46.783Z,22.60
2018-05-09T00:03:14.246Z,22.50
2018-05-09T00:05:41.720Z,22.50
2018-05-09T00:08:09.290Z,22.60
2018-05-09T00:10:36.774Z,22.90
2018-05-09T00:13:05.010Z,22.70
2018-05-09T00:15:32.477Z,22.70
2018-05-09T00:17:59.952Z,22.70
2018-05-09T00:20:27.414Z,22.80
2018-05-09T00:22:54.851Z,22.60
2018-05-09T00:25:22.320Z,22.60
2018-05-09T00:27:49.780Z,22.30
2018-05-09T00:30:17.271Z,22.40
2018-05-09T00:32:44.836Z,22.30
2018-05-09T00:35:12.271Z,22.40
2018-05-09T00:37:39.735Z,22.20
2018-05-09T00:40:07.208Z,22.10
2018-05-09T00:42:34.673Z,21.90
2018-05-09T00:45:02.125Z,22.00
2018-05-09T00:47:29.592Z,22.10
2018-05-09T00:49:57.159Z,21.90
2018-05-09T00:52:24.993Z,21.90
2018-05-09T00:54:52.505Z,22.10
2018-05-09T00:57:20.727Z,22.10
2018-05-09T00:59:48.247Z,22.10
2018-05-09T01:02:15.804Z,22.00
2018-05-09T01:04:43.269Z,22.10
2018-05-09T01:07:10.713Z,21.90
2018-05-09T01:09:38.197Z,22.20
2018-05-09T01:12:05.648Z,22.40
2018-05-09T01:14:33.113Z,22.10
2018-05-09T01:17:00.681Z,21.90
2018-05-09T01:19:28.126Z,22.10
2018-05-09T01:21:55.592Z,21.90
2018-05-09T01:24:23.043Z,21.90
2018-05-09T01:26:50.513Z,22.00
2018-05-09T01:29:18.000Z,22.10
2018-05-09T01:31:45.483Z,21.60
2018-05-09T01:34:13.763Z,21.70
2018-05-09T01:36:42.007Z,21.50
2018-05-09T01:39:09.481Z,21.40
2018-05-09T01:41:37.049Z,21.60
2018-05-09T01:44:05.309Z,21.60
2018-05-09T01:46:32.770Z,21.60
2018-05-09T01:49:00.237Z,21.60
2018-05-09T01:51:27.815Z,21.30
2018-05-09T01:53:55.262Z,21.40
2018-05-09T01:56:22.834Z,21.20
2018-05-09T01:58:50.863Z,21.00
2018-05-09T02:01:18.367Z,21.30
2018-05-09T02:03:45.915Z,21.30
2018-05-09T02:06:13.415Z,21.30
2018-05-09T02:08:40.970Z,21.10
2018-05-09T02:11:08.434Z,21.30
2018-05-09T02:13:35.900Z,21.30
2018-05-09T02:16:04.138Z,21.10
2018-05-09T02:18:31.621Z,21.20
2018-05-09T02:20:59.068Z,21.40
2018-05-09T02:23:26.530Z,21.30
2018-05-09T02:25:54.007Z,20.90
2018-05-09T02:28:22.239Z,21.00
2018-05-09T02:30:49.705Z,21.00
2018-05-09T02:33:17.170Z,20.50
2018-05-09T02:35:44.650Z,20.50
2018-05-09T02:38:12.139Z,20.60
2018-05-09T02:40:39.609Z,20.30
2018-05-09T02:43:07.164Z,20.60
2018-05-09T02:45:34.741Z,20.80
2018-05-09T02:48:02.313Z,20.90
2018-05-09T02:50:29.868Z,20.40
2018-05-09T02:52:58.864Z,20.50
2018-05-09T02:55:26.362Z,20.50
2018-05-09T02:57:54.600Z,20.40
2018-05-09T03:00:22.075Z,20.30
2018-05-09T03:02:49.552Z,20.10
2018-05-09T03:05:18.176Z,20.30
2018-05-09T03:07:45.641Z,20.30
2018-05-09T03:10:13.097Z,20.20
2018-05-09T03:12:40.564Z,20.10
2018-05-09T03:15:08.027Z,19.90
2018-05-09T03:17:35.528Z,19.70
2018-05-09T03:20:03.773Z,20.10
2018-05-09T03:22:31.259Z,20.00
2018-05-09T03:24:58.835Z,19.90
2018-05-09T03:27:26.312Z,19.80
2018-05-09T03:29:54.570Z,19.50
2018-05-09T03:32:22.034Z,19.50
2018-05-09T03:34:49.535Z,19.50
2018-05-09T03:37:17.765Z,19.30
2018-05-09T03:39:45.230Z,19.20
2018-05-09T03:42:12.692Z,19.30
2018-05-09T03:44:40.169Z,19.60
2018-05-09T03:47:07.726Z,19.60
2018-05-09T03:49:35.196Z,19.80
2018-05-09T03:52:02.669Z,19.60
2018-05-09T03:54:30.906Z,19.60
2018-05-09T03:56:58.449Z,19.70
2018-05-09T03:59:25.964Z,19.80
2018-05-09T04:02:05.428Z,19.50
2018-05-09T04:04:45.704Z,19.60
2018-05-09T04:07:25.237Z,19.50
2018-05-09T04:09:56.737Z,19.40
2018-05-09T04:12:25.086Z,19.30
2018-05-09T04:14:52.606Z,19.40
2018-05-09T04:17:20.025Z,19.30
2018-05-09T04:19:47.483Z,19.30
2018-05-09T04:22:14.976Z,19.10
2018-05-09T04:24:42.435Z,19.20
2018-05-09T04:27:09.903Z,19.20
2018-05-09T04:29:37.373Z,19.30
2018-05-09T04:32:05.999Z,19.20
2018-05-09T04:34:33.463Z,19.20
2018-05-09T04:37:00.929Z,19.20
2018-05-09T04:39:28.396Z,19.10
2018-05-09T04:41:55.890Z,19.20
2018-05-09T04:44:23.345Z,19.00
2018-05-09T04:46:50.805Z,18.70
2018-05-09T04:49:18.380Z,18.70
2018-05-09T04:51:45.831Z,18.60
2018-05-09T04:54:13.307Z,18.50
2018-05-09T04:56:40.783Z,18.50
2018-05-09T04:59:09.052Z,18.20
2018-05-09T05:01:36.535Z,18.20
2018-05-09T05:04:04.769Z,18.40
2018-05-09T05:06:32.260Z,18.30
2018-05-09T05:08:59.716Z,18.10
2018-05-09T05:11:28.695Z,18.10
2018-05-09T05:13:56.276Z,18.10
2018-05-09T05:16:25.239Z,18.30
2018-05-09T05:18:52.699Z,18.30
2018-05-09T05:21:20.177Z,18.30
2018-05-09T05:23:47.635Z,18.50
2018-05-09T05:26:15.100Z,18.50
2018-05-09T05:28:42.602Z,18.40
2018-05-09T05:31:10.051Z,18.20
2018-05-09T05:33:37.588Z,18.30
2018-05-09T05:36:05.074Z,18.20
2018-05-09T05:38:33.197Z,18.50
2018-05-09T05:41:00.660Z,18.60
2018-05-09T05:43:28.111Z,18.80
2018-05-09T05:45:55.598Z,19.00
2018-05-09T05:48:23.084Z,19.10
2018-05-09T05:50:50.577Z,19.20
2018-05-09T05:53:18.821Z,19.30
2018-05-09T05:55:47.108Z,19.30
2018-05-09T05:58:14.685Z,19.20
2018-05-09T06:00:42.264Z,19.20
2018-05-09T06:03:10.507Z,19.30
2018-05-09T06:05:37.956Z,19.30
2018-05-09T06:08:05.432Z,19.30
2018-05-09T06:10:33.017Z,19.00
2018-05-09T06:13:00.508Z,18.90
2018-05-09T06:15:28.747Z,19.20
2018-05-09T06:17:56.326Z,19.20
2018-05-09T06:20:23.890Z,19.10
2018-05-09T06:22:51.431Z,18.90
2018-05-09T06:25:18.911Z,19.20
2018-05-09T06:27:47.244Z,19.30
2018-05-09T06:30:15.478Z,19.40
2018-05-09T06:32:44.441Z,19.40
2018-05-09T06:35:12.291Z,19.40
2018-05-09T06:37:39.815Z,19.40
2018-05-09T06:40:07.364Z,19.50
2018-05-09T06:42:34.933Z,19.40
2018-05-09T06:45:03.213Z,19.50
2018-05-09T06:47:30.695Z,19.50
2018-05-09T06:49:59.106Z,19.60
2018-05-09T06:52:26.524Z,19.60
2018-05-09T06:54:54.063Z,19.60
2018-05-09T06:57:21.527Z,19.50
2018-05-09T06:59:49.031Z,19.40
2018-05-09T07:02:16.469Z,19.60
2018-05-09T07:04:43.936Z,19.80
2018-05-09T07:07:11.477Z,19.80
2018-05-09T07:09:38.974Z,20.00
2018-05-09T07:12:07.194Z,19.80
2018-05-09T07:14:34.701Z,19.80
2018-05-09T07:17:02.165Z,20.00
2018-05-09T07:19:29.731Z,20.10
2018-05-09T07:21:57.208Z,20.10
2018-05-09T07:24:25.462Z,20.10
2018-05-09T07:26:53.037Z,20.10
2018-05-09T07:29:21.299Z,20.20
2018-05-09T07:31:48.785Z,20.20
2018-05-09T07:34:16.265Z,20.30
2018-05-09T07:36:44.487Z,20.40
2018-05-09T07:39:12.089Z,20.40
2018-05-09T07:41:39.549Z,20.60
2018-05-09T07:44:07.007Z,20.70
2018-05-09T07:46:35.306Z,20.70
2018-05-09T07:49:03.545Z,20.80
2018-05-09T07:51:32.779Z,20.80
2018-05-09T07:54:00.234Z,20.80
2018-05-09T07:56:27.706Z,20.80
2018-05-09T07:58:55.246Z,20.90
2018-05-09T08:01:22.814Z,21.00
2018-05-09T08:03:50.270Z,21.20
2018-05-09T08:06:17.841Z,21.20
2018-05-09T08:08:45.308Z,21.10
2018-05-09T08:11:12.882Z,21.20
2018-05-09T08:13:40.502Z,21.20
2018-05-09T08:16:07.978Z,21.40
2018-05-09T08:18:35.446Z,21.30
2018-05-09T08:21:02.932Z,21.40
2018-05-09T08:23:30.426Z,21.50
2018-05-09T08:25:58.679Z,21.90
2018-05-09T08:28:26.141Z,21.80
2018-05-09T08:30:53.623Z,21.90
2018-05-09T08:33:21.855Z,21.90
2018-05-09T08:35:49.331Z,21.90
2018-05-09T08:38:17.648Z,22.00
2018-05-09T08:40:45.890Z,22.30
2018-05-09T08:43:13.498Z,22.30
2018-05-09T08:45:40.909Z,22.30
2018-05-09T08:48:08.481Z,22.40
2018-05-09T08:50:36.036Z,22.50
2018-05-09T08:53:03.600Z,22.50
2018-05-09T08:55:31.137Z,22.50
2018-05-09T08:57:58.627Z,22.60
2018-05-09T09:00:26.202Z,22.70
2018-05-09T09:02:53.687Z,22.70
2018-05-09T09:05:21.911Z,22.80
2018-05-09T09:07:49.406Z,22.70
2018-05-09T09:10:16.882Z,22.80
2018-05-09T09:12:45.120Z,22.80
2018-05-09T09:15:12.584Z,22.80
2018-05-09T09:17:40.060Z,22.70
2018-05-09T09:20:07.542Z,22.70
2018-05-09T09:22:34.992Z,22.80
2018-05-09T09:25:02.553Z,22.70
2018-05-09T09:27:30.040Z,22.70
2018-05-09T09:29:57.514Z,22.70
2018-05-09T09:32:25.785Z,22.90
2018-05-09T09:34:54.115Z,23.00
2018-05-09T09:37:21.773Z,22.90
2018-05-09T09:39:49.423Z,22.90
2018-05-09T09:42:16.887Z,23.00
2018-05-09T09:44:44.396Z,23.00
2018-05-09T09:47:11.973Z,22.80
2018-05-09T09:49:39.540Z,22.80
2018-05-09T09:52:07.000Z,22.60
2018-05-09T09:54:34.453Z,22.70
2018-05-09T09:57:03.693Z,22.70
2018-05-09T09:59:31.225Z,22.60
2018-05-09T10:01:58.687Z,22.80
2018-05-09T10:04:26.153Z,23.00
2018-05-09T10:06:53.624Z,23.00
2018-05-09T10:09:21.847Z,23.00
2018-05-09T10:11:49.357Z,23.00
2018-05-09T10:14:16.904Z,23.00
2018-05-09T10:16:44.368Z,23.10
2018-05-09T10:19:11.847Z,23.10
2018-05-09T10:21:40.816Z,23.10
2018-05-09T10:24:08.290Z,23.10
2018-05-09T10:26:35.872Z,23.20
2018-05-09T10:29:04.145Z,23.10
2018-05-09T10:31:31.704Z,23.10
2018-05-09T10:33:59.159Z,23.00
2018-05-09T10:36:26.698Z,23.10
2018-05-09T10:38:54.208Z,23.30
2018-05-09T10:41:21.877Z,23.20
2018-05-09T10:43:50.101Z,23.40
2018-05-09T10:46:17.625Z,23.30
2018-05-09T10:48:45.114Z,23.50
2018-05-09T10:51:13.366Z,23.50
2018-05-09T10:53:41.614Z,23.60
2018-05-09T10:56:09.227Z,23.60
2018-05-09T10:58:37.567Z,23.50
2018-05-09T11:01:05.023Z,23.50
2018-05-09T11:03:32.492Z,23.60
2018-05-09T11:06:00.073Z,23.40
2018-05-09T11:08:27.775Z,23.40
2018-05-09T11:10:56.130Z,23.50
2018-05-09T11:13:23.600Z,23.50
2018-05-09T11:15:51.057Z,23.30
2018-05-09T11:18:20.033Z,23.40
2018-05-09T11:20:47.605Z,23.40
2018-05-09T11:23:15.165Z,23.50
2018-05-09T11:25:43.135Z,23.60
2018-05-09T11:28:10.607Z,23.70
2018-05-09T11:30:38.165Z,23.60
2018-05-09T11:33:05.679Z,23.60
2018-05-09T11:35:33.117Z,23.70
2018-05-09T11:38:01.371Z,23.60
2018-05-09T11:40:28.847Z,23.60
2018-05-09T11:42:57.061Z,23.40
2018-05-09T11:45:25.422Z,23.30
2018-05-09T11:47:53.069Z,23.50
2018-05-09T11:50:20.580Z,23.60
2018-05-09T11:52:48.111Z,23.60
2018-05-09T11:55:16.348Z,23.40
2018-05-09T11:57:44.505Z,23.40
2018-05-09T12:00:12.022Z,23.50
2018-05-09T12:02:40.284Z,23.50
2018-05-09T12:05:08.237Z,23.50
2018-05-09T12:07:35.695Z,23.40
2018-05-09T12:10:03.148Z,23.70
2018-05-09T12:12:30.611Z,24.20
2018-05-09T12:14:58.083Z,24.20
2018-05-09T12:17:25.549Z,24.10
2018-05-09T12:19:53.047Z,23.90
2018-05-09T12:22:20.503Z,24.00
2018-05-09T12:24:47.967Z,23.60
2018-05-09T12:27:15.524Z,23.70
2018-05-09T12:29:43.076Z,24.10
2018-05-09T12:32:10.543Z,24.60
2018-05-09T12:34:38.127Z,24.70
2018-05-09T12:37:05.593Z,24.80
2018-05-09T12:39:33.830Z,24.30
2018-05-09T12:42:01.291Z,24.30
2018-05-09T12:44:28.735Z,24.50
2018-05-09T12:46:56.212Z,24.20
2018-05-09T12:49:23.667Z,24.50
2018-05-09T12:51:51.163Z,24.60
2018-05-09T12:54:18.647Z,24.50
2018-05-09T12:56:46.126Z,24.30
2018-05-09T12:59:14.357Z,24.90
2018-05-09T13:01:41.810Z,24.90
2018-05-09T13:04:09.281Z,25.40
2018-05-09T13:06:37.802Z,24.90
2018-05-09T13:09:06.133Z,25.20
2018-05-09T13:11:33.619Z,25.20
2018-05-09T13:14:01.148Z,25.00
2018-05-09T13:16:28.609Z,25.30
2018-05-09T13:18:56.120Z,25.50
2018-05-09T13:21:24.377Z,25.50
2018-05-09T13:23:51.830Z,25.50
2018-05-09T13:26:19.296Z,25.60
2018-05-09T13:28:46.841Z,25.60
2018-05-09T13:31:14.349Z,25.60
2018-05-09T13:33:41.810Z,25.40
2018-05-09T13:36:09.269Z,25.70
2018-05-09T13:38:36.833Z,25.50
2018-05-09T13:41:04.389Z,25.60
2018-05-09T13:43:31.963Z,25.30
2018-05-09T13:46:00.275Z,25.40
2018-05-09T13:48:27.731Z,25.40
2018-05-09T13:50:55.956Z,25.50
2018-05-09T13:53:23.403Z,25.50
2018-05-09T13:55:50.880Z,25.10
2018-05-09T13:58:18.360Z,25.40
2018-05-09T14:00:45.834Z,26.10
2018-05-09T14:03:13.300Z,25.80
2018-05-09T14:05:40.853Z,26.00
2018-05-09T14:08:08.334Z,25.60
2018-05-09T14:10:36.549Z,25.50
2018-05-09T14:13:04.060Z,25.40
2018-05-09T14:15:31.607Z,25.60
2018-05-09T14:17:58.978Z,25.60
2018-05-09T14:20:26.433Z,25.70
2018-05-09T14:22:53.891Z,25.70
2018-05-09T14:25:21.430Z,25.10
2018-05-09T14:27:48.957Z,25.30
2018-05-09T14:30:16.494Z,25.70
2018-05-09T14:32:43.966Z,27.10
2018-05-09T14:35:11.444Z,27.60
2018-05-09T14:37:38.905Z,27.80
2018-05-09T14:40:07.160Z,27.80
2018-05-09T14:42:34.627Z,27.80
2018-05-09T14:45:02.080Z,28.00
2018-05-09T14:47:29.548Z,27.70
2018-05-09T14:49:57.013Z,27.60
2018-05-09T14:52:24.499Z,27.70
2018-05-09T14:54:52.050Z,27.00
2018-05-09T14:57:21.098Z,25.00
2018-05-09T14:59:48.551Z,24.90
2018-05-09T15:02:16.006Z,24.30
2018-05-09T15:04:44.261Z,24.10
2018-05-09T15:07:13.229Z,23.90
2018-05-09T15:09:40.717Z,23.90
2018-05-09T15:12:09.709Z,24.50
2018-05-09T15:14:37.275Z,24.50
2018-05-09T15:17:05.499Z,24.20
2018-05-09T15:19:33.019Z,24.20
2018-05-09T15:22:00.570Z,23.70
2018-05-09T15:24:28.036Z,24.90
2018-05-09T15:26:55.581Z,24.90
2018-05-09T15:29:23.066Z,24.20
2018-05-09T15:31:51.297Z,25.70
2018-05-09T15:34:18.755Z,25.60
2018-05-09T15:36:46.225Z,25.80
2018-05-09T15:39:13.723Z,24.60
2018-05-09T15:41:41.558Z,24.50
2018-05-09T15:44:09.046Z,23.50
2018-05-09T15:46:36.524Z,23.20
2018-05-09T15:49:04.072Z,23.50
2018-05-09T15:51:31.644Z,24.00
2018-05-09T15:53:59.105Z,23.80
2018-05-09T15:56:26.567Z,23.70
2018-05-09T15:58:54.147Z,24.10
2018-05-09T16:01:23.115Z,24.50
2018-05-09T16:03:50.567Z,24.50
2018-05-09T16:06:18.024Z,24.90
2018-05-09T16:08:45.476Z,24.10
2018-05-09T16:11:12.950Z,24.30
2018-05-09T16:13:40.403Z,23.40
2018-05-09T16:16:07.876Z,23.30
2018-05-09T16:18:35.377Z,24.40
2018-05-09T16:21:02.932Z,24.30
2018-05-09T16:23:30.497Z,26.80
2018-05-09T16:25:58.061Z,27.50
2018-05-09T16:28:25.621Z,27.10
2018-05-09T16:30:53.076Z,27.20
2018-05-09T16:33:20.532Z,27.00
2018-05-09T16:35:47.991Z,27.20
2018-05-09T16:38:15.470Z,27.10
2018-05-09T16:40:42.940Z,26.80
2018-05-09T16:43:11.948Z,26.80
2018-05-09T16:45:40.200Z,26.90
2018-05-09T16:48:07.654Z,26.90
2018-05-09T16:50:35.959Z,26.90
2018-05-09T16:53:03.529Z,26.80
2018-05-09T16:55:32.509Z,26.40
2018-05-09T16:57:59.969Z,26.40
2018-05-09T17:00:27.529Z,26.80
2018-05-09T17:02:54.996Z,26.60
2018-05-09T17:05:22.459Z,26.50
2018-05-09T17:07:49.929Z,26.40
2018-05-09T17:10:17.562Z,26.30
2018-05-09T17:12:45.061Z,26.40
2018-05-09T17:15:12.527Z,26.30
2018-05-09T17:17:41.484Z,26.40
2018-05-09T17:20:08.981Z,26.40
2018-05-09T17:22:36.445Z,26.30
2018-05-09T17:25:03.909Z,26.30
2018-05-09T17:27:31.381Z,26.20
2018-05-09T17:29:59.638Z,26.10
2018-05-09T17:32:27.092Z,26.10
2018-05-09T17:34:54.684Z,26.10
2018-05-09T17:37:23.008Z,26.10
2018-05-09T17:39:50.521Z,26.10
2018-05-09T17:42:18.071Z,26.00
2018-05-09T17:44:45.533Z,26.00
2018-05-09T17:47:13.071Z,26.00
2018-05-09T17:49:41.264Z,25.80
2018-05-09T17:52:08.719Z,25.80
2018-05-09T17:54:36.883Z,25.70
2018-05-09T17:57:04.343Z,25.70
2018-05-09T17:59:31.835Z,25.70
2018-05-09T18:01:59.279Z,25.70
2018-05-09T18:04:26.735Z,25.70
2018-05-09T18:06:54.210Z,25.50
2018-05-09T18:09:21.677Z,25.60
2018-05-09T18:11:49.164Z,25.60
2018-05-09T18:14:16.734Z,25.60
2018-05-09T18:16:44.954Z,25.50
2018-05-09T18:19:12.430Z,25.40
2018-05-09T18:21:39.901Z,25.40
2018-05-09T18:24:07.383Z,25.30
2018-05-09T18:26:34.856Z,25.30
2018-05-09T18:29:02.414Z,25.00
2018-05-09T18:31:29.983Z,25.20
2018-05-09T18:33:57.543Z,25.20
2018-05-09T18:36:25.121Z,25.00
2018-05-09T18:38:53.345Z,24.90
2018-05-09T18:41:20.826Z,24.80
2018-05-09T18:43:48.275Z,24.80
2018-05-09T18:46:15.862Z,24.70
2018-05-09T18:48:44.060Z,24.60
2018-05-09T18:51:13.055Z,24.60
2018-05-09T18:53:40.616Z,24.60
2018-05-09T18:56:08.091Z,24.60
2018-05-09T18:58:37.078Z,24.60
2018-05-09T19:01:05.105Z,24.50
2018-05-09T19:03:32.603Z,24.50
2018-05-09T19:06:00.067Z,24.40
2018-05-09T19:08:27.541Z,24.30
2018-05-09T19:10:55.008Z,24.30
2018-05-09T19:13:23.973Z,24.10
2018-05-09T19:15:51.441Z,24.10
2018-05-09T19:18:19.015Z,24.00
2018-05-09T19:20:46.593Z,24.00
2018-05-09T19:23:14.251Z,23.90
2018-05-09T19:25:42.423Z,23.80
2018-05-09T19:28:09.871Z,23.70
2018-05-09T19:30:37.333Z,23.90
2018-05-09T19:33:04.810Z,23.80
2018-05-09T19:35:32.251Z,23.80
2018-05-09T19:37:59.725Z,23.70
2018-05-09T19:40:27.195Z,23.10
2018-05-09T19:42:54.735Z,21.60
2018-05-09T19:45:22.201Z,21.20
2018-05-09T19:47:49.707Z,21.50
2018-05-09T19:50:17.145Z,21.70
2018-05-09T19:52:44.717Z,21.30
2018-05-09T19:55:12.276Z,21.70
2018-05-09T19:57:39.734Z,21.10
2018-05-09T20:00:07.180Z,21.40
2018-05-09T20:02:34.638Z,20.80
2018-05-09T20:05:02.113Z,21.20
2018-05-09T20:07:29.569Z,20.90
2018-05-09T20:09:57.048Z,21.30
2018-05-09T20:12:24.632Z,21.20
2018-05-09T20:14:52.183Z,20.90
2018-05-09T20:17:20.335Z,21.10
2018-05-09T20:19:47.811Z,21.30
2018-05-09T20:22:15.276Z,21.40
2018-05-09T20:24:42.827Z,21.30
2018-05-09T20:27:10.288Z,20.80
2018-05-09T20:29:37.746Z,21.00
2018-05-09T20:32:17.008Z,21.10
2018-05-09T20:34:44.568Z,21.20
2018-05-09T20:37:12.042Z,21.40
2018-05-09T20:39:40.269Z,21.40
2018-05-09T20:42:07.860Z,21.40
2018-05-09T20:44:35.249Z,21.40
2018-05-09T20:47:03.489Z,21.20
2018-05-09T20:49:30.964Z,21.20
2018-05-09T20:51:58.414Z,21.20
2018-05-09T20:54:25.874Z,21.00
2018-05-09T20:56:53.360Z,20.70
2018-05-09T20:59:20.924Z,20.60
2018-05-09T21:01:49.099Z,20.70
2018-05-09T21:04:16.656Z,20.70
2018-05-09T21:06:44.234Z,20.80
2018-05-09T21:09:11.774Z,21.00
2018-05-09T21:11:39.943Z,21.00
2018-05-09T21:14:07.392Z,21.00
2018-05-09T21:16:34.890Z,21.00
2018-05-09T21:19:02.370Z,20.90
2018-05-09T21:21:29.920Z,20.80
2018-05-09T21:23:57.377Z,20.60
2018-05-09T21:26:24.832Z,20.70
2018-05-09T21:28:52.768Z,20.70
2018-05-09T21:31:20.285Z,20.70
2018-05-09T21:33:47.823Z,20.60
2018-05-09T21:36:15.292Z,20.50
2018-05-09T21:38:42.761Z,20.40
2018-05-09T21:41:10.319Z,20.50
2018-05-09T21:43:37.794Z,20.60
2018-05-09T21:46:05.253Z,20.60
2018-05-09T21:48:32.823Z,20.40
2018-05-09T21:51:00.298Z,20.50
2018-05-09T21:53:28.540Z,20.50
2018-05-09T21:55:56.069Z,20.50
2018-05-09T21:58:23.575Z,20.50
2018-05-09T22:00:51.031Z,20.10
2018-05-09T22:03:18.535Z,20.20
2018-05-09T22:05:46.755Z,20.30
2018-05-09T22:08:14.239Z,20.30
2018-05-09T22:10:41.749Z,20.20
2018-05-09T22:13:09.192Z,20.20
2018-05-09T22:15:37.428Z,20.00
2018-05-09T22:18:04.926Z,20.00
2018-05-09T22:20:32.384Z,20.00
2018-05-09T22:22:59.932Z,19.90
2018-05-09T22:25:27.389Z,20.00
2018-05-09T22:27:54.855Z,20.10
2018-05-09T22:30:22.333Z,20.00
2018-05-09T22:32:49.879Z,19.90
2018-05-09T22:35:17.369Z,19.90
2018-05-09T22:37:45.601Z,19.40
2018-05-09T22:40:13.055Z,19.30
2018-05-09T22:42:40.541Z,19.50
2018-05-09T22:45:08.940Z,19.40
2018-05-09T22:47:36.400Z,19.40
2018-05-09T22:50:03.963Z,19.50
2018-05-09T22:52:31.431Z,19.50
2018-05-09T22:54:59.074Z,19.30
2018-05-09T22:57:26.453Z,19.40
2018-05-09T22:59:53.908Z,19.20
2018-05-09T23:02:21.375Z,19.40
2018-05-09T23:04:48.856Z,19.10
2018-05-09T23:07:17.087Z,18.70
2018-05-09T23:09:44.556Z,18.60
2018-05-09T23:12:12.024Z,18.50
2018-05-09T23:14:39.613Z,18.80
2018-05-09T23:17:07.131Z,18.60
2018-05-09T23:19:35.340Z,18.90
2018-05-09T23:22:02.807Z,18.80
2018-05-09T23:24:30.265Z,18.60
2018-05-09T23:26:57.833Z,18.80
2018-05-09T23:29:25.336Z,18.70
2018-05-09T23:31:53.566Z,18.60
2018-05-09T23:34:21.037Z,18.50
2018-05-09T23:36:48.506Z,18.20
2018-05-09T23:39:15.960Z,18.30
2018-05-09T23:41:43.519Z,18.50
2018-05-09T23:44:10.972Z,18.70
2018-05-09T23:46:38.437Z,18.40
2018-05-09T23:49:05.917Z,18.20
2018-05-09T23:51:33.473Z,18.10
2018-05-09T23:54:00.936Z,18.20
2018-05-09T23:56:28.487Z,18.20
2018-05-09T23:58:56.068Z,18.40
